CMH2 weather

Milton (Afi) Heliport
Milton, Ontario, Canada

Public forecast

Using degrees Celsius for public forecast. Weather courtesy of forecast.io.

Closest aviation weather report (METAR) to Milton (Afi) Heliport

Closest report is Lester B. Pearson International Airport, 14.7 nm (27.2 km) NE. Retrieved 2019/11/15 09:00 UTC (34 minutes ago):

CYYZ 150900Z 24013G20KT 15SM BKN027 M00/M04 A3010 RMK SC7 SLP202

Closest aviation forecast (TAF) to Milton (Afi) Heliport

Closest forecast is Lester B. Pearson International Airport, 14.7 nm (27.2 km) NE. Retrieved 2019/11/15 09:39 UTC (0 seconds ago):

TAF CYYZ 150838Z 1509/1612 24012G22KT P6SM OVC020 TEMPO 1509/1518 OVC025 BECMG 1514/1516 26015G25KT FM151800 27015G25KT P6SM OVC030 FM152200 30012G22KT P6SM -SHSNRA OVC025 FM160000 34012KT P6SM BKN030 FM160300 01010KT P6SM FEW030 FM160600 03008KT P6SM SKC RMK NXT FCST BY 151200Z